sensor_id;sensor_type;location;lat;lon;timestamp;P1;durP1;ratioP1;P2;durP2;ratioP2
22223;SDS011;11281;52.194;21.006;2023-03-12T00:03:53;17.92;;;8.25;;
22223;SDS011;11281;52.194;21.006;2023-03-12T00:08:15;21.27;;;9.38;;
22223;SDS011;11281;52.194;21.006;2023-03-12T00:12:37;11.65;;;6.15;;
22223;SDS011;11281;52.194;21.006;2023-03-12T00:16:59;13.43;;;6.07;;
22223;SDS011;11281;52.194;21.006;2023-03-12T00:21:21;8.93;;;5.28;;
22223;SDS011;11281;52.194;21.006;2023-03-12T00:25:43;11.77;;;4.18;;
22223;SDS011;11281;52.194;21.006;2023-03-12T00:30:05;7.00;;;4.55;;
22223;SDS011;11281;52.194;21.006;2023-03-12T00:34:28;10.73;;;5.43;;
22223;SDS011;11281;52.194;21.006;2023-03-12T00:38:50;10.05;;;5.30;;
22223;SDS011;11281;52.194;21.006;2023-03-12T00:43:12;6.43;;;4.55;;
22223;SDS011;11281;52.194;21.006;2023-03-12T00:47:34;10.48;;;5.18;;
22223;SDS011;11281;52.194;21.006;2023-03-12T00:51:56;12.90;;;6.32;;
22223;SDS011;11281;52.194;21.006;2023-03-12T00:56:18;10.68;;;5.90;;
22223;SDS011;11281;52.194;21.006;2023-03-12T01:00:40;10.50;;;5.72;;
22223;SDS011;11281;52.194;21.006;2023-03-12T01:05:01;9.35;;;5.70;;
22223;SDS011;11281;52.194;21.006;2023-03-12T01:09:24;9.25;;;5.30;;
22223;SDS011;11281;52.194;21.006;2023-03-12T01:13:46;13.95;;;6.07;;
22223;SDS011;11281;52.194;21.006;2023-03-12T01:18:08;9.55;;;5.72;;
22223;SDS011;11281;52.194;21.006;2023-03-12T01:22:29;13.07;;;5.18;;
22223;SDS011;11281;52.194;21.006;2023-03-12T01:26:51;8.98;;;5.68;;
22223;SDS011;11281;52.194;21.006;2023-03-12T01:31:14;6.00;;;5.10;;
22223;SDS011;11281;52.194;21.006;2023-03-12T01:35:39;12.00;;;5.38;;
22223;SDS011;11281;52.194;21.006;2023-03-12T01:40:01;9.32;;;4.35;;
22223;SDS011;11281;52.194;21.006;2023-03-12T01:44:24;8.90;;;5.22;;
22223;SDS011;11281;52.194;21.006;2023-03-12T01:48:50;7.57;;;4.30;;
22223;SDS011;11281;52.194;21.006;2023-03-12T01:53:29;11.88;;;5.50;;
22223;SDS011;11281;52.194;21.006;2023-03-12T01:57:52;7.50;;;4.75;;
22223;SDS011;11281;52.194;21.006;2023-03-12T02:02:16;6.70;;;4.53;;
22223;SDS011;11281;52.194;21.006;2023-03-12T02:11:36;9.93;;;4.95;;
22223;SDS011;11281;52.194;21.006;2023-03-12T02:15:58;10.02;;;5.13;;
22223;SDS011;11281;52.194;21.006;2023-03-12T02:20:41;7.22;;;4.75;;
22223;SDS011;11281;52.194;21.006;2023-03-12T02:25:20;7.68;;;4.63;;
22223;SDS011;11281;52.194;21.006;2023-03-12T02:29:51;6.40;;;4.55;;
22223;SDS011;11281;52.194;21.006;2023-03-12T02:34:13;7.43;;;3.95;;
22223;SDS011;11281;52.194;21.006;2023-03-12T02:38:36;6.72;;;4.85;;
22223;SDS011;11281;52.194;21.006;2023-03-12T02:43:09;10.82;;;4.78;;
22223;SDS011;11281;52.194;21.006;2023-03-12T02:47:31;7.45;;;4.30;;
22223;SDS011;11281;52.194;21.006;2023-03-12T02:51:53;8.70;;;4.97;;
22223;SDS011;11281;52.194;21.006;2023-03-12T02:56:15;8.70;;;4.68;;
22223;SDS011;11281;52.194;21.006;2023-03-12T03:00:37;13.15;;;5.10;;
22223;SDS011;11281;52.194;21.006;2023-03-12T03:04:59;6.53;;;4.45;;
22223;SDS011;11281;52.194;21.006;2023-03-12T03:09:20;8.30;;;4.60;;
22223;SDS011;11281;52.194;21.006;2023-03-12T03:13:42;11.27;;;5.32;;
22223;SDS011;11281;52.194;21.006;2023-03-12T03:18:04;10.93;;;5.57;;
22223;SDS011;11281;52.194;21.006;2023-03-12T03:22:27;10.50;;;5.10;;
22223;SDS011;11281;52.194;21.006;2023-03-12T03:26:48;9.27;;;6.38;;
22223;SDS011;11281;52.194;21.006;2023-03-12T03:31:10;10.73;;;5.95;;
22223;SDS011;11281;52.194;21.006;2023-03-12T03:35:32;11.05;;;5.63;;
22223;SDS011;11281;52.194;21.006;2023-03-12T03:39:54;8.38;;;4.95;;
22223;SDS011;11281;52.194;21.006;2023-03-12T03:44:16;6.80;;;5.13;;
22223;SDS011;11281;52.194;21.006;2023-03-12T03:48:39;6.28;;;4.70;;
22223;SDS011;11281;52.194;21.006;2023-03-12T03:53:01;8.40;;;4.75;;
22223;SDS011;11281;52.194;21.006;2023-03-12T03:57:23;5.13;;;4.15;;
22223;SDS011;11281;52.194;21.006;2023-03-12T04:01:46;9.93;;;5.47;;
22223;SDS011;11281;52.194;21.006;2023-03-12T04:06:07;6.63;;;5.03;;
22223;SDS011;11281;52.194;21.006;2023-03-12T04:10:30;10.30;;;4.68;;
22223;SDS011;11281;52.194;21.006;2023-03-12T04:14:52;7.57;;;5.22;;
22223;SDS011;11281;52.194;21.006;2023-03-12T04:19:14;5.13;;;4.40;;
22223;SDS011;11281;52.194;21.006;2023-03-12T04:23:36;6.43;;;5.00;;
22223;SDS011;11281;52.194;21.006;2023-03-12T04:27:58;9.50;;;4.63;;
22223;SDS011;11281;52.194;21.006;2023-03-12T04:32:21;6.70;;;4.53;;
22223;SDS011;11281;52.194;21.006;2023-03-12T04:36:42;7.18;;;4.47;;
22223;SDS011;11281;52.194;21.006;2023-03-12T04:41:06;7.53;;;3.70;;
22223;SDS011;11281;52.194;21.006;2023-03-12T04:45:33;8.52;;;3.70;;
22223;SDS011;11281;52.194;21.006;2023-03-12T04:49:55;5.63;;;3.95;;
22223;SDS011;11281;52.194;21.006;2023-03-12T04:54:17;5.75;;;3.15;;
22223;SDS011;11281;52.194;21.006;2023-03-12T04:58:40;6.97;;;4.13;;
22223;SDS011;11281;52.194;21.006;2023-03-12T05:03:02;5.65;;;3.70;;
22223;SDS011;11281;52.194;21.006;2023-03-12T05:07:24;6.85;;;3.85;;
22223;SDS011;11281;52.194;21.006;2023-03-12T05:11:46;5.30;;;3.95;;
22223;SDS011;11281;52.194;21.006;2023-03-12T05:16:08;8.50;;;3.60;;
22223;SDS011;11281;52.194;21.006;2023-03-12T05:20:34;5.78;;;3.75;;
22223;SDS011;11281;52.194;21.006;2023-03-12T05:24:56;4.07;;;3.67;;
22223;SDS011;11281;52.194;21.006;2023-03-12T05:29:17;5.07;;;4.07;;
22223;SDS011;11281;52.194;21.006;2023-03-12T05:33:39;7.32;;;3.25;;
22223;SDS011;11281;52.194;21.006;2023-03-12T05:38:02;3.78;;;3.47;;
22223;SDS011;11281;52.194;21.006;2023-03-12T05:42:24;6.63;;;3.58;;
22223;SDS011;11281;52.194;21.006;2023-03-12T05:46:45;4.00;;;3.58;;
22223;SDS011;11281;52.194;21.006;2023-03-12T05:51:07;5.60;;;3.60;;
22223;SDS011;11281;52.194;21.006;2023-03-12T05:55:29;7.03;;;3.72;;
22223;SDS011;11281;52.194;21.006;2023-03-12T05:59:54;5.50;;;3.65;;
22223;SDS011;11281;52.194;21.006;2023-03-12T06:04:17;6.38;;;3.80;;
22223;SDS011;11281;52.194;21.006;2023-03-12T06:08:39;8.23;;;3.72;;
22223;SDS011;11281;52.194;21.006;2023-03-12T06:13:02;4.10;;;3.45;;
22223;SDS011;11281;52.194;21.006;2023-03-12T06:17:24;10.45;;;4.13;;
22223;SDS011;11281;52.194;21.006;2023-03-12T06:21:46;5.85;;;3.17;;
22223;SDS011;11281;52.194;21.006;2023-03-12T06:26:08;6.63;;;3.60;;
22223;SDS011;11281;52.194;21.006;2023-03-12T06:30:31;3.20;;;2.90;;
22223;SDS011;11281;52.194;21.006;2023-03-12T06:34:53;5.55;;;3.25;;
22223;SDS011;11281;52.194;21.006;2023-03-12T06:39:15;3.33;;;2.70;;
22223;SDS011;11281;52.194;21.006;2023-03-12T06:43:38;3.50;;;3.10;;
22223;SDS011;11281;52.194;21.006;2023-03-12T06:48:01;4.13;;;2.45;;
22223;SDS011;11281;52.194;21.006;2023-03-12T06:52:23;3.83;;;2.85;;
22223;SDS011;11281;52.194;21.006;2023-03-12T06:56:44;5.30;;;2.78;;
22223;SDS011;11281;52.194;21.006;2023-03-12T07:01:06;3.15;;;2.50;;
22223;SDS011;11281;52.194;21.006;2023-03-12T07:05:28;5.18;;;2.63;;
22223;SDS011;11281;52.194;21.006;2023-03-12T07:09:50;2.65;;;2.15;;
22223;SDS011;11281;52.194;21.006;2023-03-12T07:14:12;3.95;;;2.78;;
22223;SDS011;11281;52.194;21.006;2023-03-12T07:18:34;2.97;;;2.42;;
22223;SDS011;11281;52.194;21.006;2023-03-12T07:22:55;4.72;;;2.00;;
22223;SDS011;11281;52.194;21.006;2023-03-12T07:27:17;4.88;;;3.17;;
22223;SDS011;11281;52.194;21.006;2023-03-12T07:31:39;4.95;;;3.05;;
22223;SDS011;11281;52.194;21.006;2023-03-12T07:36:01;2.38;;;2.10;;
22223;SDS011;11281;52.194;21.006;2023-03-12T07:40:23;6.93;;;3.17;;
22223;SDS011;11281;52.194;21.006;2023-03-12T07:44:45;5.82;;;2.53;;
22223;SDS011;11281;52.194;21.006;2023-03-12T07:49:07;4.25;;;2.58;;
22223;SDS011;11281;52.194;21.006;2023-03-12T07:53:29;6.53;;;3.20;;
22223;SDS011;11281;52.194;21.006;2023-03-12T07:57:50;10.48;;;4.72;;
22223;SDS011;11281;52.194;21.006;2023-03-12T08:02:13;5.63;;;2.85;;
22223;SDS011;11281;52.194;21.006;2023-03-12T08:06:35;13.90;;;6.45;;
22223;SDS011;11281;52.194;21.006;2023-03-12T08:10:58;7.10;;;2.63;;
22223;SDS011;11281;52.194;21.006;2023-03-12T08:15:20;2.13;;;1.75;;
22223;SDS011;11281;52.194;21.006;2023-03-12T08:19:42;2.65;;;1.75;;
22223;SDS011;11281;52.194;21.006;2023-03-12T08:24:04;2.28;;;2.00;;
22223;SDS011;11281;52.194;21.006;2023-03-12T08:28:26;2.80;;;2.03;;
22223;SDS011;11281;52.194;21.006;2023-03-12T08:32:47;2.75;;;2.30;;
22223;SDS011;11281;52.194;21.006;2023-03-12T08:37:09;3.95;;;2.17;;
22223;SDS011;11281;52.194;21.006;2023-03-12T08:41:31;1.85;;;1.73;;
22223;SDS011;11281;52.194;21.006;2023-03-12T08:45:57;2.05;;;1.95;;
22223;SDS011;11281;52.194;21.006;2023-03-12T08:50:20;2.88;;;2.28;;
22223;SDS011;11281;52.194;21.006;2023-03-12T08:54:45;2.33;;;1.80;;
22223;SDS011;11281;52.194;21.006;2023-03-12T08:59:07;3.10;;;2.20;;
22223;SDS011;11281;52.194;21.006;2023-03-12T09:03:30;2.88;;;2.03;;
22223;SDS011;11281;52.194;21.006;2023-03-12T09:07:52;3.97;;;3.55;;
22223;SDS011;11281;52.194;21.006;2023-03-12T09:12:13;3.10;;;2.25;;
22223;SDS011;11281;52.194;21.006;2023-03-12T09:16:35;3.45;;;1.90;;
22223;SDS011;11281;52.194;21.006;2023-03-12T09:20:57;2.92;;;2.33;;
22223;SDS011;11281;52.194;21.006;2023-03-12T09:25:19;8.88;;;2.45;;
22223;SDS011;11281;52.194;21.006;2023-03-12T09:29:42;6.95;;;2.72;;
22223;SDS011;11281;52.194;21.006;2023-03-12T09:34:04;6.75;;;2.45;;
22223;SDS011;11281;52.194;21.006;2023-03-12T09:38:26;3.83;;;2.35;;
22223;SDS011;11281;52.194;21.006;2023-03-12T09:42:49;1.85;;;1.75;;
22223;SDS011;11281;52.194;21.006;2023-03-12T09:47:22;5.63;;;3.70;;
22223;SDS011;11281;52.194;21.006;2023-03-12T09:51:50;3.47;;;2.25;;
22223;SDS011;11281;52.194;21.006;2023-03-12T09:56:16;2.95;;;2.58;;
22223;SDS011;11281;52.194;21.006;2023-03-12T10:00:40;2.42;;;2.10;;
22223;SDS011;11281;52.194;21.006;2023-03-12T10:05:07;5.32;;;2.88;;
22223;SDS011;11281;52.194;21.006;2023-03-12T10:19:45;5.53;;;3.33;;
22223;SDS011;11281;52.194;21.006;2023-03-12T10:24:29;4.15;;;2.22;;
22223;SDS011;11281;52.194;21.006;2023-03-12T10:29:20;4.78;;;2.00;;
22223;SDS011;11281;52.194;21.006;2023-03-12T10:33:49;4.97;;;2.33;;
22223;SDS011;11281;52.194;21.006;2023-03-12T10:38:19;2.87;;;2.30;;
22223;SDS011;11281;52.194;21.006;2023-03-12T10:42:48;3.78;;;3.20;;
22223;SDS011;11281;52.194;21.006;2023-03-12T10:51:55;7.15;;;2.78;;
22223;SDS011;11281;52.194;21.006;2023-03-12T10:56:46;6.57;;;3.30;;
22223;SDS011;11281;52.194;21.006;2023-03-12T11:05:36;3.42;;;1.75;;
22223;SDS011;11281;52.194;21.006;2023-03-12T11:14:30;4.53;;;2.90;;
22223;SDS011;11281;52.194;21.006;2023-03-12T11:19:02;4.63;;;2.35;;
22223;SDS011;11281;52.194;21.006;2023-03-12T11:23:27;2.95;;;2.67;;
22223;SDS011;11281;52.194;21.006;2023-03-12T11:27:59;4.47;;;2.45;;
22223;SDS011;11281;52.194;21.006;2023-03-12T11:32:37;7.07;;;2.22;;
22223;SDS011;11281;52.194;21.006;2023-03-12T11:37:14;4.57;;;2.70;;
22223;SDS011;11281;52.194;21.006;2023-03-12T11:46:49;4.70;;;2.40;;
22223;SDS011;11281;52.194;21.006;2023-03-12T11:51:26;8.23;;;2.20;;
22223;SDS011;11281;52.194;21.006;2023-03-12T12:05:53;4.25;;;2.78;;
22223;SDS011;11281;52.194;21.006;2023-03-12T12:15:12;4.32;;;3.00;;
22223;SDS011;11281;52.194;21.006;2023-03-12T12:20:12;5.82;;;3.00;;
22223;SDS011;11281;52.194;21.006;2023-03-12T12:24:56;8.38;;;4.28;;
22223;SDS011;11281;52.194;21.006;2023-03-12T12:39:24;2.97;;;1.75;;
22223;SDS011;11281;52.194;21.006;2023-03-12T12:44:05;2.80;;;1.90;;
22223;SDS011;11281;52.194;21.006;2023-03-12T13:03:04;5.47;;;2.97;;
22223;SDS011;11281;52.194;21.006;2023-03-12T13:11:51;5.13;;;3.15;;
22223;SDS011;11281;52.194;21.006;2023-03-12T13:16:26;3.38;;;2.65;;
22223;SDS011;11281;52.194;21.006;2023-03-12T13:21:11;2.85;;;2.25;;
22223;SDS011;11281;52.194;21.006;2023-03-12T13:25:59;3.38;;;2.15;;
22223;SDS011;11281;52.194;21.006;2023-03-12T13:34:56;5.65;;;2.35;;
22223;SDS011;11281;52.194;21.006;2023-03-12T13:39:25;4.28;;;2.17;;
22223;SDS011;11281;52.194;21.006;2023-03-12T13:43:56;6.80;;;2.28;;
22223;SDS011;11281;52.194;21.006;2023-03-12T13:48:18;7.63;;;1.80;;
22223;SDS011;11281;52.194;21.006;2023-03-12T13:52:45;3.53;;;2.05;;
22223;SDS011;11281;52.194;21.006;2023-03-12T14:02:07;3.78;;;1.90;;
22223;SDS011;11281;52.194;21.006;2023-03-12T14:21:09;8.40;;;3.35;;
22223;SDS011;11281;52.194;21.006;2023-03-12T14:25:38;9.73;;;3.70;;
22223;SDS011;11281;52.194;21.006;2023-03-12T14:43:56;3.58;;;2.90;;
22223;SDS011;11281;52.194;21.006;2023-03-12T14:48:40;4.88;;;2.47;;
22223;SDS011;11281;52.194;21.006;2023-03-12T14:53:11;7.38;;;3.97;;
22223;SDS011;11281;52.194;21.006;2023-03-12T14:57:40;4.05;;;2.97;;
22223;SDS011;11281;52.194;21.006;2023-03-12T15:02:23;2.20;;;1.95;;
22223;SDS011;11281;52.194;21.006;2023-03-12T15:06:54;3.10;;;1.70;;
22223;SDS011;11281;52.194;21.006;2023-03-12T15:11:25;3.92;;;2.17;;
22223;SDS011;11281;52.194;21.006;2023-03-12T15:15:49;4.03;;;2.00;;
22223;SDS011;11281;52.194;21.006;2023-03-12T15:20:14;8.65;;;5.05;;
22223;SDS011;11281;52.194;21.006;2023-03-12T15:24:37;6.55;;;3.90;;
22223;SDS011;11281;52.194;21.006;2023-03-12T15:33:34;6.13;;;3.38;;
22223;SDS011;11281;52.194;21.006;2023-03-12T15:37:56;8.77;;;4.47;;
22223;SDS011;11281;52.194;21.006;2023-03-12T15:42:19;12.40;;;6.22;;
22223;SDS011;11281;52.194;21.006;2023-03-12T15:46:45;7.75;;;3.70;;
22223;SDS011;11281;52.194;21.006;2023-03-12T15:51:27;6.65;;;4.05;;
22223;SDS011;11281;52.194;21.006;2023-03-12T16:00:41;9.00;;;5.28;;
22223;SDS011;11281;52.194;21.006;2023-03-12T16:05:04;4.95;;;3.97;;
22223;SDS011;11281;52.194;21.006;2023-03-12T16:09:26;7.88;;;4.43;;
22223;SDS011;11281;52.194;21.006;2023-03-12T16:13:53;10.02;;;5.35;;
22223;SDS011;11281;52.194;21.006;2023-03-12T16:18:23;9.93;;;5.20;;
22223;SDS011;11281;52.194;21.006;2023-03-12T16:22:45;8.30;;;5.38;;
22223;SDS011;11281;52.194;21.006;2023-03-12T16:27:09;13.75;;;5.15;;
22223;SDS011;11281;52.194;21.006;2023-03-12T16:31:34;18.73;;;9.23;;
22223;SDS011;11281;52.194;21.006;2023-03-12T16:35:56;6.05;;;4.40;;
22223;SDS011;11281;52.194;21.006;2023-03-12T16:40:18;11.68;;;5.28;;
22223;SDS011;11281;52.194;21.006;2023-03-12T16:44:40;5.28;;;4.43;;
22223;SDS011;11281;52.194;21.006;2023-03-12T16:49:03;9.70;;;5.75;;
22223;SDS011;11281;52.194;21.006;2023-03-12T16:53:24;14.43;;;7.70;;
22223;SDS011;11281;52.194;21.006;2023-03-12T16:57:53;31.67;;;16.63;;
22223;SDS011;11281;52.194;21.006;2023-03-12T17:02:18;16.98;;;7.55;;
22223;SDS011;11281;52.194;21.006;2023-03-12T17:06:41;8.05;;;5.43;;
22223;SDS011;11281;52.194;21.006;2023-03-12T17:11:05;10.93;;;5.43;;
22223;SDS011;11281;52.194;21.006;2023-03-12T17:15:38;10.93;;;4.97;;
22223;SDS011;11281;52.194;21.006;2023-03-12T17:20:00;13.32;;;5.88;;
22223;SDS011;11281;52.194;21.006;2023-03-12T17:24:22;49.95;;;17.73;;
22223;SDS011;11281;52.194;21.006;2023-03-12T17:28:47;42.10;;;17.40;;
22223;SDS011;11281;52.194;21.006;2023-03-12T17:33:11;19.42;;;9.13;;
22223;SDS011;11281;52.194;21.006;2023-03-12T17:41:59;9.27;;;6.05;;
22223;SDS011;11281;52.194;21.006;2023-03-12T17:46:21;9.60;;;4.35;;
22223;SDS011;11281;52.194;21.006;2023-03-12T17:50:43;6.72;;;4.60;;
22223;SDS011;11281;52.194;21.006;2023-03-12T17:55:05;7.15;;;4.65;;
22223;SDS011;11281;52.194;21.006;2023-03-12T17:59:28;6.28;;;3.90;;
22223;SDS011;11281;52.194;21.006;2023-03-12T18:03:49;13.48;;;4.57;;
22223;SDS011;11281;52.194;21.006;2023-03-12T18:08:11;8.25;;;3.67;;
22223;SDS011;11281;52.194;21.006;2023-03-12T18:12:33;11.02;;;5.20;;
22223;SDS011;11281;52.194;21.006;2023-03-12T18:16:55;8.43;;;5.05;;
22223;SDS011;11281;52.194;21.006;2023-03-12T18:21:16;10.32;;;4.57;;
22223;SDS011;11281;52.194;21.006;2023-03-12T18:25:38;10.55;;;5.22;;
22223;SDS011;11281;52.194;21.006;2023-03-12T18:30:00;8.38;;;4.30;;
22223;SDS011;11281;52.194;21.006;2023-03-12T18:34:22;6.65;;;4.72;;
22223;SDS011;11281;52.194;21.006;2023-03-12T18:38:43;14.50;;;5.47;;
22223;SDS011;11281;52.194;21.006;2023-03-12T18:43:06;18.42;;;5.93;;
22223;SDS011;11281;52.194;21.006;2023-03-12T18:47:28;11.38;;;5.53;;
22223;SDS011;11281;52.194;21.006;2023-03-12T18:51:50;11.55;;;5.75;;
22223;SDS011;11281;52.194;21.006;2023-03-12T18:56:15;14.93;;;6.57;;
22223;SDS011;11281;52.194;21.006;2023-03-12T19:00:37;10.13;;;5.85;;
22223;SDS011;11281;52.194;21.006;2023-03-12T19:04:59;13.90;;;6.53;;
22223;SDS011;11281;52.194;21.006;2023-03-12T19:09:23;11.60;;;6.43;;
22223;SDS011;11281;52.194;21.006;2023-03-12T19:13:48;13.85;;;7.07;;
22223;SDS011;11281;52.194;21.006;2023-03-12T19:18:12;14.77;;;6.88;;
22223;SDS011;11281;52.194;21.006;2023-03-12T19:22:33;20.42;;;7.05;;
22223;SDS011;11281;52.194;21.006;2023-03-12T19:26:55;16.75;;;7.40;;
22223;SDS011;11281;52.194;21.006;2023-03-12T19:31:17;16.90;;;7.93;;
22223;SDS011;11281;52.194;21.006;2023-03-12T19:35:39;13.43;;;7.45;;
22223;SDS011;11281;52.194;21.006;2023-03-12T19:40:01;17.95;;;9.10;;
22223;SDS011;11281;52.194;21.006;2023-03-12T19:44:25;21.23;;;8.52;;
22223;SDS011;11281;52.194;21.006;2023-03-12T19:48:47;20.60;;;11.80;;
22223;SDS011;11281;52.194;21.006;2023-03-12T19:53:10;19.88;;;8.77;;
22223;SDS011;11281;52.194;21.006;2023-03-12T19:57:32;22.52;;;9.63;;
22223;SDS011;11281;52.194;21.006;2023-03-12T20:01:54;20.63;;;8.70;;
22223;SDS011;11281;52.194;21.006;2023-03-12T20:06:16;23.92;;;9.82;;
22223;SDS011;11281;52.194;21.006;2023-03-12T20:10:37;23.10;;;10.52;;
22223;SDS011;11281;52.194;21.006;2023-03-12T20:14:59;19.00;;;9.30;;
22223;SDS011;11281;52.194;21.006;2023-03-12T20:19:21;27.38;;;13.75;;
22223;SDS011;11281;52.194;21.006;2023-03-12T20:23:43;22.13;;;11.65;;
22223;SDS011;11281;52.194;21.006;2023-03-12T20:28:04;18.13;;;8.85;;
22223;SDS011;11281;52.194;21.006;2023-03-12T20:32:27;15.85;;;8.65;;
22223;SDS011;11281;52.194;21.006;2023-03-12T20:36:48;17.15;;;7.22;;
22223;SDS011;11281;52.194;21.006;2023-03-12T20:41:13;16.08;;;8.07;;
22223;SDS011;11281;52.194;21.006;2023-03-12T20:45:35;16.42;;;6.57;;
22223;SDS011;11281;52.194;21.006;2023-03-12T20:49:57;15.45;;;7.57;;
22223;SDS011;11281;52.194;21.006;2023-03-12T20:54:19;16.20;;;6.88;;
22223;SDS011;11281;52.194;21.006;2023-03-12T20:58:40;16.10;;;7.75;;
22223;SDS011;11281;52.194;21.006;2023-03-12T21:03:02;16.83;;;6.82;;
22223;SDS011;11281;52.194;21.006;2023-03-12T21:07:24;14.80;;;6.75;;
22223;SDS011;11281;52.194;21.006;2023-03-12T21:11:45;13.52;;;7.25;;
22223;SDS011;11281;52.194;21.006;2023-03-12T21:16:07;18.48;;;6.93;;
22223;SDS011;11281;52.194;21.006;2023-03-12T21:20:31;10.68;;;6.07;;
22223;SDS011;11281;52.194;21.006;2023-03-12T21:24:53;14.30;;;7.07;;
22223;SDS011;11281;52.194;21.006;2023-03-12T21:29:14;17.75;;;7.57;;
22223;SDS011;11281;52.194;21.006;2023-03-12T21:33:36;9.93;;;6.00;;
22223;SDS011;11281;52.194;21.006;2023-03-12T21:37:58;11.15;;;6.00;;
22223;SDS011;11281;52.194;21.006;2023-03-12T21:42:20;12.30;;;6.30;;
22223;SDS011;11281;52.194;21.006;2023-03-12T21:46:41;15.45;;;7.15;;
22223;SDS011;11281;52.194;21.006;2023-03-12T21:51:04;16.38;;;7.78;;
22223;SDS011;11281;52.194;21.006;2023-03-12T21:55:28;15.05;;;6.75;;
22223;SDS011;11281;52.194;21.006;2023-03-12T21:59:50;15.88;;;8.02;;
22223;SDS011;11281;52.194;21.006;2023-03-12T22:04:12;14.82;;;7.43;;
22223;SDS011;11281;52.194;21.006;2023-03-12T22:08:33;17.83;;;8.77;;
22223;SDS011;11281;52.194;21.006;2023-03-12T22:12:56;22.60;;;9.13;;
22223;SDS011;11281;52.194;21.006;2023-03-12T22:17:17;20.40;;;8.13;;
22223;SDS011;11281;52.194;21.006;2023-03-12T22:21:39;18.83;;;8.98;;
22223;SDS011;11281;52.194;21.006;2023-03-12T22:26:03;19.27;;;8.65;;
22223;SDS011;11281;52.194;21.006;2023-03-12T22:30:26;15.13;;;7.45;;
22223;SDS011;11281;52.194;21.006;2023-03-12T22:34:48;18.17;;;8.00;;
22223;SDS011;11281;52.194;21.006;2023-03-12T22:39:10;19.20;;;8.45;;
22223;SDS011;11281;52.194;21.006;2023-03-12T22:43:31;13.85;;;7.22;;
22223;SDS011;11281;52.194;21.006;2023-03-12T22:47:53;17.80;;;8.15;;
22223;SDS011;11281;52.194;21.006;2023-03-12T22:52:15;19.67;;;9.07;;
22223;SDS011;11281;52.194;21.006;2023-03-12T22:56:37;22.98;;;8.80;;
22223;SDS011;11281;52.194;21.006;2023-03-12T23:01:00;17.83;;;8.07;;
22223;SDS011;11281;52.194;21.006;2023-03-12T23:05:28;19.08;;;9.05;;
22223;SDS011;11281;52.194;21.006;2023-03-12T23:09:50;17.70;;;8.77;;
22223;SDS011;11281;52.194;21.006;2023-03-12T23:14:11;15.40;;;8.13;;
22223;SDS011;11281;52.194;21.006;2023-03-12T23:18:33;18.20;;;8.40;;
22223;SDS011;11281;52.194;21.006;2023-03-12T23:22:55;16.75;;;7.75;;
22223;SDS011;11281;52.194;21.006;2023-03-12T23:27:17;12.20;;;8.20;;
22223;SDS011;11281;52.194;21.006;2023-03-12T23:31:39;18.17;;;8.65;;
22223;SDS011;11281;52.194;21.006;2023-03-12T23:36:02;17.00;;;8.10;;
22223;SDS011;11281;52.194;21.006;2023-03-12T23:40:26;18.88;;;7.90;;
22223;SDS011;11281;52.194;21.006;2023-03-12T23:44:48;15.55;;;8.13;;
22223;SDS011;11281;52.194;21.006;2023-03-12T23:49:10;15.52;;;8.27;;
22223;SDS011;11281;52.194;21.006;2023-03-12T23:53:32;19.02;;;8.63;;
22223;SDS011;11281;52.194;21.006;2023-03-12T23:57:55;19.73;;;9.27;;
